createdAt,value
2023-05-12T00:07:35.586Z,6.40
2023-05-12T00:17:37.076Z,7.70
2023-05-12T00:27:38.639Z,7.07
2023-05-12T00:37:40.141Z,5.73
2023-05-12T00:47:42.090Z,6.53
2023-05-12T00:57:43.963Z,6.60
2023-05-12T01:07:46.771Z,6.72
2023-05-12T01:18:00.508Z,6.00
2023-05-12T01:28:03.288Z,6.37
2023-05-12T01:38:04.820Z,5.73
2023-05-12T01:48:06.413Z,8.07
2023-05-12T01:58:07.921Z,6.15
2023-05-12T02:08:09.464Z,7.17
2023-05-12T02:18:11.003Z,7.23
2023-05-12T02:28:12.569Z,7.33
2023-05-12T02:38:14.120Z,7.40
2023-05-12T02:48:15.644Z,9.95
2023-05-12T02:58:17.198Z,8.93
2023-05-12T03:08:18.779Z,9.93
2023-05-12T03:18:20.364Z,10.17
2023-05-12T03:28:22.017Z,10.80
2023-05-12T03:38:23.474Z,10.80
2023-05-12T03:48:25.446Z,10.97
2023-05-12T03:58:27.121Z,10.67
2023-05-12T04:08:29.360Z,9.70
2023-05-12T04:18:31.185Z,13.33
2023-05-12T04:28:32.726Z,11.88
2023-05-12T04:38:34.196Z,14.00
2023-05-12T04:48:35.682Z,14.37
2023-05-12T04:58:37.241Z,13.63
2023-05-12T05:08:38.706Z,13.13
2023-05-12T05:18:40.284Z,12.90
2023-05-12T05:28:41.825Z,11.93
2023-05-12T05:38:43.386Z,13.43
2023-05-12T05:48:44.833Z,13.90
2023-05-12T05:58:46.346Z,15.20
2023-05-12T06:08:47.886Z,13.70
2023-05-12T06:18:49.394Z,7.63
2023-05-12T06:28:50.946Z,7.67
2023-05-12T06:38:52.433Z,6.47
2023-05-12T06:48:53.961Z,6.03
2023-05-12T06:58:55.911Z,4.82
2023-05-12T07:08:57.364Z,4.73
2023-05-12T07:18:58.941Z,4.07
2023-05-12T07:29:00.536Z,5.63
2023-05-12T07:39:02.129Z,5.07
2023-05-12T07:49:03.632Z,4.82
2023-05-12T07:59:05.155Z,14.80
2023-05-12T08:09:06.635Z,9.60
2023-05-12T08:19:09.405Z,5.23
2023-05-12T08:29:11.464Z,6.07
2023-05-12T08:39:15.685Z,4.80
2023-05-12T08:49:19.417Z,4.37
2023-05-12T08:59:21.329Z,4.63
2023-05-12T09:09:25.033Z,5.40
2023-05-12T09:19:26.632Z,4.50
2023-05-12T09:29:31.717Z,4.32
2023-05-12T09:39:34.174Z,5.30
2023-05-12T09:49:35.674Z,3.87
2023-05-12T09:59:37.307Z,4.07
2023-05-12T10:09:41.810Z,4.67
2023-05-12T10:19:44.204Z,4.55
2023-05-12T10:29:46.823Z,2.20
2023-05-12T10:39:50.513Z,3.17
2023-05-12T10:49:56.464Z,3.03
2023-05-12T11:00:00.000Z,4.60
2023-05-12T11:10:05.558Z,3.25
2023-05-12T11:20:08.209Z,6.73
2023-05-12T11:30:10.015Z,4.23
2023-05-12T11:40:19.522Z,3.13
2023-05-12T11:50:23.140Z,3.43
2023-05-12T12:00:29.804Z,5.32
2023-05-12T12:10:38.597Z,3.60
2023-05-12T12:20:41.273Z,4.47
2023-05-12T12:30:42.751Z,6.17
2023-05-12T12:40:44.442Z,3.93
2023-05-12T12:50:46.123Z,4.25
2023-05-12T13:00:47.765Z,4.60
2023-05-12T13:10:49.337Z,4.90
2023-05-12T13:20:50.980Z,4.47
2023-05-12T13:30:54.497Z,4.40
2023-05-12T13:40:57.100Z,5.35
2023-05-12T13:50:58.676Z,3.70
2023-05-12T14:01:00.264Z,5.03
2023-05-12T14:11:01.790Z,4.80
2023-05-12T14:21:03.464Z,11.23
2023-05-12T14:31:05.412Z,7.63
2023-05-12T14:41:09.463Z,6.03
2023-05-12T14:51:12.148Z,5.27
2023-05-12T15:01:15.058Z,4.43
2023-05-12T15:11:16.685Z,6.03
2023-05-12T15:21:18.161Z,4.70
2023-05-12T15:31:20.834Z,4.40
2023-05-12T15:41:22.384Z,5.07
2023-05-12T15:51:24.030Z,4.90
2023-05-12T16:01:25.989Z,4.30
2023-05-12T16:11:27.645Z,3.83
2023-05-12T16:21:29.074Z,3.20
2023-05-12T16:31:30.613Z,4.50
2023-05-12T16:41:32.138Z,3.70
2023-05-12T16:51:33.708Z,4.07
2023-05-12T17:01:35.572Z,4.65
2023-05-12T17:11:38.251Z,4.47
2023-05-12T17:21:40.852Z,4.07
2023-05-12T17:31:42.803Z,4.63
2023-05-12T17:41:47.211Z,3.70
2023-05-12T17:51:48.677Z,4.97
2023-05-12T18:01:50.141Z,6.23
2023-05-12T18:11:51.667Z,7.00
2023-05-12T18:21:53.567Z,3.67
2023-05-12T18:31:55.207Z,4.80
2023-05-12T18:41:58.097Z,5.75
2023-05-12T18:51:59.575Z,5.75
2023-05-12T19:02:01.255Z,4.63
2023-05-12T19:12:02.989Z,6.83
2023-05-12T19:22:04.907Z,5.38
2023-05-12T19:32:06.930Z,5.17
2023-05-12T19:42:08.508Z,4.80
2023-05-12T19:52:10.061Z,6.93
2023-05-12T20:02:14.983Z,7.10
2023-05-12T20:12:16.574Z,5.78
2023-05-12T20:22:18.033Z,7.20
2023-05-12T20:32:19.548Z,10.05
2023-05-12T20:42:21.438Z,8.83
2023-05-12T20:52:23.641Z,6.63
2023-05-12T21:02:26.842Z,8.77
2023-05-12T21:12:28.583Z,7.23
2023-05-12T21:22:30.172Z,7.00
2023-05-12T21:32:31.690Z,6.57
2023-05-12T21:42:33.316Z,8.37
2023-05-12T21:52:35.050Z,7.00
2023-05-12T22:02:36.606Z,7.80
2023-05-12T22:12:38.103Z,10.52
2023-05-12T22:22:39.693Z,13.27
2023-05-12T22:32:41.207Z,9.73
2023-05-12T22:42:42.764Z,10.80
2023-05-12T22:52:44.276Z,9.37
2023-05-12T23:02:45.793Z,10.05
2023-05-12T23:12:47.320Z,10.30
2023-05-12T23:22:48.819Z,13.33
2023-05-12T23:32:50.478Z,15.60
2023-05-12T23:42:52.213Z,11.33
2023-05-12T23:52:54.036Z,13.60
